Luxembourg-Findel International Airport

ELLX · Luxembourg, 卢森堡

METAR的历史 ELLX · 卢森堡-芬德尔国际机场

下面你可以看到过去几天的METARs。 选择年份以浏览从2007年开始的旧METAR。

2024年7月21日

时间 代码 天气 温度 能见度 天花板 METAR/SPECI
23:20
V
19 °C 10 km+ 5.000 ft 270° 270° 7 kt METAR ELLX 212120Z 27007KT 9999 FEW020 BKN050 19/17 Q1014 NOSIG
22:50
V
19 °C 10 km+ 6.000 ft 300° 300° 5 kt METAR ELLX 212050Z 30005KT 280V340 9999 FEW020 BKN060 19/17 Q1014 NOSIG
22:20
V
19 °C 10 km+ - 280° 280° 5 kt METAR ELLX 212020Z 28005KT 230V340 9999 FEW020 19/17 Q1013 TEMPO 6000 SHRA SCT035TCU
21:50
V
19 °C 10 km+ 5.000 ft 310° 310° 8 kt METAR ELLX 211950Z 31008KT 280V340 9999 FEW018 BKN050 19/17 Q1013 TEMPO 6000 SHRA SCT035TCU
21:20
V
19 °C 10 km+ 5.000 ft 320° 320° 12 kt METAR ELLX 211920Z 32012KT 9999 FEW018 BKN050 19/18 Q1013 TEMPO 6000 SHRA SCT035TCU
20:50
M
20 °C 6 km 4.000 ft 300° 300° 12 kt METAR ELLX 211850Z 30012KT 6000 -SHRA FEW018 SCT035TCU BKN040 20/19 Q1012 TEMPO 6000 SHRA SCT035TCU
20:20
V
23 °C 10 km+ 5.000 ft 280° 280° 7 kt METAR ELLX 211820Z 28007KT 9999 VCSH FEW045TCU BKN050 23/16 Q1011 NOSIG
19:50
V
24 °C 10 km+ - 280° 280° 9 kt METAR ELLX 211750Z 28009KT 9999 FEW037TCU SCT042 24/16 Q1011 NOSIG
19:20
V
24 °C 10 km+ - 270° 270° 8 kt METAR ELLX 211720Z 27008KT 230V340 9999 SCT039 24/16 Q1011 NOSIG
18:50
V
25 °C 10 km+ - 270° 270° 7 kt METAR ELLX 211650Z 27007KT 220V290 9999 FEW040 SCT045 25/16 Q1011 NOSIG
18:20
V
25 °C 10 km+ - 250° 250° 5 kt METAR ELLX 211620Z 25005KT 190V300 9999 FEW039 25/17 Q1011 NOSIG
17:50
V
24 °C 10 km+ - Var Var 6 kt METAR ELLX 211550Z VRB06KT 9999 FEW039 24/15 Q1011 NOSIG
17:20
V
25 °C 10 km+ - 230° 230° 6 kt METAR ELLX 211520Z 23006KT 200V280 9999 FEW035 25/16 Q1011 NOSIG
16:50
V
24 °C 10 km+ - 200° 200° 6 kt METAR ELLX 211450Z 20006KT 160V250 9999 FEW030 24/16 Q1011 NOSIG
16:20
V
24 °C 10 km+ - 210° 210° 6 kt METAR ELLX 211420Z 21006KT 150V250 9999 FEW030 24/16 Q1011 NOSIG
15:50
V
23 °C 10 km+ 9.000 ft 210° 210° 6 kt METAR ELLX 211350Z 21006KT 180V240 9999 FEW027 SCT070 BKN090 23/16 Q1011 NOSIG
15:20
V
23 °C 10 km+ 9.000 ft 200° 200° 5 kt METAR ELLX 211320Z 20005KT 140V250 9999 FEW027 SCT070 BKN090 23/16 Q1011 NOSIG
14:50
V
23 °C 10 km+ 7.000 ft 220° 220° 6 kt METAR ELLX 211250Z 22006KT 160V260 9999 FEW025 BKN070 BKN090 23/17 Q1011 NOSIG
14:20
V
23 °C 10 km+ 8.000 ft 210° 210° 6 kt METAR ELLX 211220Z 21006KT 160V260 9999 FEW025 SCT070 BKN080 23/17 Q1011 NOSIG
13:50
V
22 °C 10 km+ 8.000 ft 220° 220° 5 kt METAR ELLX 211150Z 22005KT 170V260 9999 FEW020 BKN080 BKN085 22/16 Q1011 NOSIG
13:20
V
22 °C 10 km+ 8.500 ft 230° 230° 5 kt METAR ELLX 211120Z 23005KT 200V280 9999 FEW019 SCT063 BKN085 22/16 Q1011 NOSIG
12:50
V
22 °C 10 km+ - 250° 250° 5 kt METAR ELLX 211050Z 25005KT 210V280 CAVOK 22/17 Q1011 NOSIG
12:20
V
22 °C 10 km+ 9.000 ft 290° 290° 4 kt METAR ELLX 211020Z 29004KT 230V010 9999 FEW019 BKN090 22/17 Q1010 NOSIG
11:50
V
21 °C 10 km+ - Var Var 5 kt METAR ELLX 210950Z VRB05KT 9999 FEW016 21/17 Q1010 NOSIG
11:20
V
21 °C 10 km+ 8.600 ft 300° 300° 8 kt METAR ELLX 210920Z 30008KT 270V330 9999 FEW018 BKN086 21/17 Q1010 NOSIG
10:50
V
21 °C 10 km+ - 280° 280° 11 kt METAR ELLX 210850Z 28011KT 250V310 9999 FEW016 SCT022 21/17 Q1010 NOSIG
10:20
V
21 °C 10 km+ - 260° 260° 7 kt METAR ELLX 210820Z 26007KT 210V320 9999 FEW017 SCT020 21/17 Q1010 NOSIG
09:50
V
21 °C 10 km+ - 220° 220° 6 kt METAR ELLX 210750Z 22006KT 190V260 9999 FEW012 21/17 Q1010 NOSIG
09:20
V
21 °C 10 km+ - 160° 160° 3 kt METAR ELLX 210720Z 16003KT 090V220 9999 FEW010 21/17 Q1009 NOSIG
08:50
V
20 °C 10 km+ - Var Var 3 kt METAR ELLX 210650Z VRB03KT 9999 FEW005 20/18 Q1009 NOSIG
08:20
V
19 °C 10 km+ - 250° 250° 3 kt METAR ELLX 210620Z 25003KT 210V290 9999 FEW002 19/17 Q1009 NOSIG
07:50
V
18 °C 10 km+ - Var Var 2 kt METAR ELLX 210550Z VRB02KT CAVOK 18/18 Q1008 NOSIG
07:20
V
18 °C 10 km+ - 300° 300° 4 kt METAR ELLX 210520Z 30004KT 230V330 CAVOK 18/17 Q1008 NOSIG
06:50
V
18 °C 10 km+ - 290° 290° 5 kt METAR ELLX 210450Z 29005KT 250V340 9999 FEW044 18/17 Q1008 NOSIG
06:20
V
18 °C 10 km+ - Var Var 5 kt METAR ELLX 210420Z VRB05KT 9999 FEW044 18/17 Q1008 NOSIG
05:50
V
18 °C 10 km+ - 280° 280° 4 kt METAR ELLX 210350Z 28004KT 9999 FEW039 18/17 Q1009 NOSIG
05:20
V
19 °C 10 km+ - 320° 320° 5 kt METAR ELLX 210320Z 32005KT 9999 FEW020 SCT045 19/18 Q1009 NOSIG
04:50
V
18 °C 10 km+ 4.300 ft 190° 190° 4 kt METAR ELLX 210250Z 19004KT 140V220 9999 -SHRA SCT022CB BKN043 18/17 Q1009 NOSIG
04:20
V
19 °C 10 km+ 8.400 ft 160° 160° 5 kt METAR ELLX 210220Z AUTO 16005KT 9999 OVC084/// //////CB 19/16 Q1009 NOSIG
03:50
V
20 °C 10 km+ 5.200 ft 230° 230° 6 kt METAR ELLX 210150Z AUTO 23006KT 180V270 9999 OVC052/// //////TCU 20/16 Q1009 NOSIG
03:20
V
20 °C 10 km+ - 300° 300° 9 kt METAR ELLX 210120Z AUTO 30009KT 9999 NCD 20/16 Q1008 NOSIG
02:50
V
20 °C 10 km+ - 290° 290° 10 kt METAR ELLX 210050Z AUTO 29010KT 9999 NCD 20/16 Q1008 NOSIG
02:20
V
20 °C 10 km+ - 280° 280° 11 kt METAR ELLX 210020Z 28011KT CAVOK 20/16 Q1009 NOSIG
01:50
V
21 °C 10 km+ - 260° 260° 10 kt METAR ELLX 202350Z 26010KT 9999 FEW037 21/17 Q1009 NOSIG
01:20
V
21 °C 10 km+ - Var Var 9 - 20 kt METAR ELLX 202320Z AUTO VRB09G20KT 9999 SCT054/// 21/17 Q1008 NOSIG
00:50
V
21 °C 10 km+ - 050° 050° 4 kt METAR ELLX 202250Z 05004KT CAVOK 21/16 Q1008 NOSIG
00:20
V
21 °C 10 km+ - 060° 060° 2 kt METAR ELLX 202220Z 06002KT CAVOK 21/16 Q1008 NOSIG

2024年7月20日

时间 代码 天气 温度 能见度 天花板 METAR/SPECI
23:50
V
21 °C 10 km+ - 070° 070° 5 kt METAR ELLX 202150Z 07005KT CAVOK 21/15 Q1008 NOSIG
23:20
V
21 °C 10 km+ - 350° 350° 3 kt METAR ELLX 202120Z 35003KT 310V020 CAVOK 21/16 Q1008 NOSIG
22:50
V
22 °C 10 km+ - 050° 050° 6 kt METAR ELLX 202050Z 05006KT CAVOK 22/16 Q1008 NOSIG
22:20
V
21 °C 10 km+ - 170° 170° 5 kt METAR ELLX 202020Z 17005KT 120V220 9999 FEW041 21/17 Q1008 NOSIG
21:50
V
22 °C 10 km+ - 260° 260° 6 kt METAR ELLX 201950Z 26006KT 9999 -SHRA FEW040CB 22/16 Q1009 NOSIG
21:20
V
23 °C 10 km+ - 270° 270° 10 kt METAR ELLX 201920Z 27010KT 9999 FEW040CB 23/16 Q1009 NOSIG
20:50
V
24 °C 10 km+ - 180° 180° 4 kt METAR ELLX 201850Z 18004KT 160V220 9999 VCSH SCT070CB 24/19 Q1009 NOSIG
20:20
V
25 °C 10 km+ - 150° 150° 4 kt METAR ELLX 201820Z 15004KT CAVOK 25/20 Q1008 NOSIG
19:50
V
26 °C 10 km+ - 150° 150° 6 kt METAR ELLX 201750Z 15006KT CAVOK 26/19 Q1008 NOSIG
19:20
V
26 °C 10 km+ - 190° 190° 4 kt METAR ELLX 201720Z 19004KT CAVOK 26/19 Q1008 NOSIG
18:50
V
28 °C 10 km+ - 200° 200° 6 kt METAR ELLX 201650Z 20006KT 170V240 CAVOK 28/18 Q1009 NOSIG
18:20
V
28 °C 10 km+ - 220° 220° 5 kt METAR ELLX 201620Z 22005KT CAVOK 28/18 Q1009 NOSIG
17:50
V
28 °C 10 km+ - 220° 220° 4 kt METAR ELLX 201550Z 22004KT CAVOK 28/19 Q1009 NOSIG
17:20
V
28 °C 10 km+ - 230° 230° 5 kt METAR ELLX 201520Z 23005KT 210V270 CAVOK 28/19 Q1009 NOSIG
16:50
V
27 °C 10 km+ - 250° 250° 4 kt METAR ELLX 201450Z 25004KT 9999 FEW030 27/18 Q1009 NOSIG
16:20
V
28 °C 10 km+ - Var Var 3 kt METAR ELLX 201420Z VRB03KT 9999 FEW022 SCT042TCU 28/16 Q1010 RETSRA NOSIG
15:50
V
26 °C 8 km 5.000 ft 240° 240° 14 kt METAR ELLX 201350Z 24014KT 200V270 8000 +TSRA FEW020 BKN050CB 26/17 Q1010 TEMPO 5000 SHRA
15:20
V
29 °C 10 km+ - 190° 190° 6 kt METAR ELLX 201320Z 19006KT 140V270 9999 VCSH FEW050TCU SCT055 29/17 Q1010 NOSIG
14:50
V
30 °C 10 km+ - 200° 200° 6 kt METAR ELLX 201250Z 20006KT 120V240 9999 SCT055TCU 30/17 Q1010 NOSIG
14:20
V
29 °C 10 km+ - 170° 170° 5 kt METAR ELLX 201220Z 17005KT 090V250 9999 SCT050TCU 29/16 Q1010 NOSIG
13:50
V
29 °C 10 km+ - 170° 170° 7 kt METAR ELLX 201150Z 17007KT 120V220 9999 FEW048TCU 29/17 Q1011 NOSIG
13:20
V
28 °C 10 km+ - 170° 170° 7 kt METAR ELLX 201120Z 17007KT 070V220 9999 FEW046TCU 28/16 Q1011 NOSIG
12:50
V
28 °C 10 km+ - 180° 180° 7 kt METAR ELLX 201050Z 18007KT 140V220 9999 FEW046 28/16 Q1011 NOSIG
12:20
V
28 °C 10 km+ - 180° 180° 8 kt METAR ELLX 201020Z 18008KT 140V210 9999 FEW045 28/17 Q1012 NOSIG
11:50
V
27 °C 10 km+ - 170° 170° 6 kt METAR ELLX 200950Z 17006KT 060V220 CAVOK 27/17 Q1012 NOSIG
11:20
V
27 °C 10 km+ - 190° 190° 7 kt METAR ELLX 200920Z 19007KT 150V240 CAVOK 27/18 Q1012 NOSIG
10:50
V
26 °C 10 km+ - 160° 160° 4 kt METAR ELLX 200850Z 16004KT 050V220 CAVOK 26/17 Q1012 NOSIG
10:20
V
25 °C 10 km+ - 140° 140° 4 kt METAR ELLX 200820Z 14004KT 080V220 CAVOK 25/17 Q1012 NOSIG
09:50
V
24 °C 10 km+ - 140° 140° 4 kt METAR ELLX 200750Z 14004KT 100V180 CAVOK 24/17 Q1012 NOSIG
09:20
V
23 °C 10 km+ - 140° 140° 4 kt METAR ELLX 200720Z 14004KT 100V200 CAVOK 23/17 Q1013 NOSIG
08:50
V
22 °C 10 km+ - 160° 160° 4 kt METAR ELLX 200650Z 16004KT CAVOK 22/16 Q1013 NOSIG
08:20
V
21 °C 10 km+ - 120° 120° 3 kt METAR ELLX 200620Z 12003KT 080V170 CAVOK 21/16 Q1013 NOSIG
07:50
V
21 °C 10 km+ - 080° 080° 3 kt METAR ELLX 200550Z 08003KT 050V110 CAVOK 21/16 Q1013 NOSIG
07:20
V
20 °C 10 km+ - 070° 070° 3 kt METAR ELLX 200520Z 07003KT CAVOK 20/16 Q1013 NOSIG
06:50
V
19 °C 10 km+ - 050° 050° 4 kt METAR ELLX 200450Z 05004KT CAVOK 19/15 Q1013 NOSIG
06:20
V
19 °C 10 km+ - 060° 060° 5 kt METAR ELLX 200420Z 06005KT CAVOK 19/14 Q1013 NOSIG
05:50
V
19 °C 10 km+ - 050° 050° 6 kt METAR ELLX 200350Z 05006KT CAVOK 19/14 Q1013 NOSIG
05:20
V
19 °C 10 km+ - 040° 040° 5 kt METAR ELLX 200320Z 04005KT CAVOK 19/14 Q1013 NOSIG
04:50
V
19 °C 10 km+ - 040° 040° 5 kt METAR ELLX 200250Z 04005KT CAVOK 19/14 Q1014 NOSIG
04:20
V
19 °C 10 km+ - 050° 050° 7 kt METAR ELLX 200220Z AUTO 05007KT 9999 NCD 19/15 Q1014 NOSIG
03:50
V
20 °C 10 km+ - 040° 040° 6 kt METAR ELLX 200150Z AUTO 04006KT 9999 NCD 20/14 Q1014 NOSIG
03:20
V
20 °C 10 km+ - 040° 040° 6 kt METAR ELLX 200120Z AUTO 04006KT 9999 NCD 20/15 Q1014 NOSIG
02:50
V
20 °C 10 km+ - 050° 050° 6 kt METAR ELLX 200050Z AUTO 05006KT 9999 NCD 20/15 Q1015 NOSIG
02:20
V
19 °C 10 km+ - 050° 050° 7 kt METAR ELLX 200020Z 05007KT CAVOK 19/15 Q1015 NOSIG
01:50
V
21 °C 10 km+ - 050° 050° 7 kt METAR ELLX 192350Z 05007KT CAVOK 21/15 Q1015 NOSIG
01:20
V
21 °C 10 km+ - 050° 050° 7 kt METAR ELLX 192320Z AUTO 05007KT 9999 NCD 21/15 Q1016 NOSIG
00:50
V
22 °C 10 km+ - 040° 040° 6 kt METAR ELLX 192250Z 04006KT CAVOK 22/15 Q1016 NOSIG
00:20
V
22 °C 10 km+ - 030° 030° 6 kt METAR ELLX 192220Z 03006KT CAVOK 22/15 Q1016 NOSIG

2024年7月19日

时间 代码 天气 温度 能见度 天花板 METAR/SPECI
23:50
V
24 °C 10 km+ - 040° 040° 7 kt METAR ELLX 192150Z 04007KT CAVOK 24/14 Q1016 NOSIG
23:20
V
23 °C 10 km+ - 360° 360° 5 kt METAR ELLX 192120Z 36005KT CAVOK 23/14 Q1017 NOSIG
22:50
V
23 °C 10 km+ - 360° 360° 4 kt METAR ELLX 192050Z 36004KT 320V050 CAVOK 23/14 Q1017 NOSIG
22:20
V
23 °C 10 km+ - 340° 340° 6 kt METAR ELLX 192020Z 34006KT CAVOK 23/14 Q1017 NOSIG
21:50
V
23 °C 10 km+ - 340° 340° 6 kt METAR ELLX 191950Z 34006KT CAVOK 23/14 Q1017 NOSIG
21:20
V
23 °C 10 km+ - 350° 350° 6 kt METAR ELLX 191920Z 35006KT CAVOK 23/15 Q1016 NOSIG
20:50
V
26 °C 10 km+ - 340° 340° 6 kt METAR ELLX 191850Z 34006KT CAVOK 26/15 Q1017 NOSIG
20:20
V
26 °C 10 km+ - 340° 340° 6 kt METAR ELLX 191820Z 34006KT 300V020 CAVOK 26/15 Q1016 NOSIG
19:50
V
26 °C 10 km+ - 340° 340° 6 kt METAR ELLX 191750Z 34006KT 320V020 CAVOK 26/15 Q1017 NOSIG
19:20
V
27 °C 10 km+ - 320° 320° 8 kt METAR ELLX 191720Z 32008KT 290V350 CAVOK 27/15 Q1017 NOSIG
18:50
V
27 °C 10 km+ - 340° 340° 6 kt METAR ELLX 191650Z 34006KT 310V050 CAVOK 27/14 Q1017 NOSIG
18:20
V
28 °C 10 km+ - 340° 340° 8 kt METAR ELLX 191620Z 34008KT CAVOK 28/15 Q1017 NOSIG
17:50
V
28 °C 10 km+ - 350° 350° 6 kt METAR ELLX 191550Z 35006KT 300V050 CAVOK 28/15 Q1017 NOSIG
17:20
V
27 °C 10 km+ - Var Var 2 kt METAR ELLX 191520Z VRB02KT CAVOK 27/14 Q1017 NOSIG
16:50
V
28 °C 10 km+ - Var Var 2 kt METAR ELLX 191450Z VRB02KT 9999 FEW048 28/14 Q1018 NOSIG
16:20
V
28 °C 10 km+ - Var Var 3 kt METAR ELLX 191420Z VRB03KT CAVOK 28/14 Q1018 NOSIG
15:50
V
27 °C 10 km+ - 180° 180° 4 kt METAR ELLX 191350Z 18004KT 100V250 CAVOK 27/14 Q1018 NOSIG
15:20
V
27 °C 10 km+ - Var Var 3 kt METAR ELLX 191320Z VRB03KT CAVOK 27/16 Q1018 NOSIG
14:50
V
28 °C 10 km+ - 120° 120° 5 kt METAR ELLX 191250Z 12005KT 070V160 CAVOK 28/15 Q1018 NOSIG
14:20
V
27 °C 10 km+ - Var Var 4 kt METAR ELLX 191220Z VRB04KT CAVOK 27/15 Q1019 NOSIG
13:50
V
27 °C 10 km+ - 070° 070° 7 kt METAR ELLX 191150Z 07007KT 040V100 CAVOK 27/14 Q1019 NOSIG
13:20
V
26 °C 10 km+ - 050° 050° 4 kt METAR ELLX 191120Z 05004KT 320V100 CAVOK 26/14 Q1019 NOSIG
12:50
V
26 °C 10 km+ - 070° 070° 5 kt METAR ELLX 191050Z 07005KT 020V110 CAVOK 26/14 Q1019 NOSIG
12:20
V
25 °C 10 km+ - 050° 050° 4 kt METAR ELLX 191020Z 05004KT 360V120 CAVOK 25/14 Q1020 NOSIG
11:50
V
25 °C 10 km+ - 050° 050° 7 kt METAR ELLX 190950Z 05007KT 360V090 CAVOK 25/15 Q1020 NOSIG
11:20
V
24 °C 10 km+ - 060° 060° 6 kt METAR ELLX 190920Z 06006KT 030V090 CAVOK 24/15 Q1020 NOSIG
10:50
V
23 °C 10 km+ - 070° 070° 6 kt METAR ELLX 190850Z 07006KT 040V110 CAVOK 23/15 Q1020 NOSIG
10:20
V
23 °C 10 km+ - 060° 060° 6 kt METAR ELLX 190820Z 06006KT 030V110 CAVOK 23/15 Q1020 NOSIG
09:50
V
22 °C 10 km+ - 070° 070° 7 kt METAR ELLX 190750Z 07007KT 040V100 CAVOK 22/14 Q1020 NOSIG
09:20
V
21 °C 10 km+ - 050° 050° 8 kt METAR ELLX 190720Z 05008KT CAVOK 21/14 Q1020 NOSIG
08:50
V
19 °C 10 km+ - 060° 060° 9 kt METAR ELLX 190650Z 06009KT CAVOK 19/13 Q1020 NOSIG
08:20
V
20 °C 10 km+ - 040° 040° 9 kt METAR ELLX 190620Z 04009KT CAVOK 20/13 Q1020 NOSIG
07:50
V
18 °C 10 km+ - 040° 040° 9 kt METAR ELLX 190550Z 04009KT CAVOK 18/13 Q1020 NOSIG
报告变更